Time,TemperatureF,DewpointF,PressureIn,WindDirection,WindDirectionDegrees,WindSpeedMPH,WindSpeedGustMPH,Humidity,HourlyPrecipIn,Conditions,Clouds,dailyrainin,SolarRadiationWatts/m^2,SoftwareType,DateUTC
2013-06-13 00:00:00,60.0,58.9,29.72,NE,45,0.0,4.0,96,0.01,,---,1.02,0.00,VWS V14.01,2013-06-13 05:00:00,
2013-06-13 00:01:00,59.9,58.8,29.72,NE,45,0.0,0.0,96,0.00,,---,0.00,0.00,VWS V14.01,2013-06-13 05:01:00,
2013-06-13 00:06:00,59.9,58.8,29.73,NE,45,0.0,0.0,96,0.00,,---,0.00,0.00,VWS V14.01,2013-06-13 05:06:00,
2013-06-13 00:11:00,59.7,58.6,29.73,NE,45,0.0,1.0,96,0.00,,---,0.00,0.00,VWS V14.01,2013-06-13 05:11:00,
2013-06-13 00:16:00,59.5,58.4,29.73,NE,45,0.0,1.0,96,0.00,,---,0.00,0.00,VWS V14.01,2013-06-13 05:16:00,
2013-06-13 00:21:00,59.5,58.4,29.73,NE,45,0.0,1.0,96,0.00,,---,0.00,0.00,VWS V14.01,2013-06-13 05:21:00,
2013-06-13 00:26:00,59.4,58.3,29.73,NE,45,0.0,1.0,96,0.00,,---,0.00,0.00,VWS V14.01,2013-06-13 05:26:00,
2013-06-13 00:31:00,59.3,58.2,29.74,NE,45,0.0,1.0,96,0.00,,---,0.00,0.00,VWS V14.01,2013-06-13 05:31:00,
2013-06-13 00:36:00,59.2,58.1,29.74,NE,45,0.0,2.0,96,0.00,,---,0.00,0.00,VWS V14.01,2013-06-13 05:36:00,
2013-06-13 00:41:00,59.2,58.1,29.74,NE,45,0.0,2.0,96,0.00,,---,0.00,0.00,VWS V14.01,2013-06-13 05:41:00,
2013-06-13 00:46:00,59.2,58.1,29.74,NE,45,0.0,2.0,96,0.00,,---,0.00,0.00,VWS V14.01,2013-06-13 05:46:00,
2013-06-13 00:51:00,59.1,58.0,29.74,NE,45,0.0,2.0,96,0.00,,---,0.00,0.00,VWS V14.01,2013-06-13 05:51:00,
2013-06-13 00:56:00,59.1,58.0,29.74,NE,45,0.0,2.0,96,0.00,,---,0.00,0.00,VWS V14.01,2013-06-13 05:56:00,
2013-06-13 01:00:00,59.1,58.0,29.74,NE,45,0.0,2.0,96,0.00,,---,0.00,0.00,VWS V14.01,2013-06-13 06:00:00,
2013-06-13 01:01:00,59.1,58.0,29.75,NE,45,0.0,0.0,96,0.00,,---,0.00,0.00,VWS V14.01,2013-06-13 06:01:00,
2013-06-13 01:06:00,59.1,58.0,29.75,NE,45,0.0,1.0,96,0.00,,---,0.00,0.00,VWS V14.01,2013-06-13 06:06:00,
2013-06-13 01:11:00,59.0,57.9,29.75,NE,45,1.0,2.0,96,0.00,,---,0.00,0.00,VWS V14.01,2013-06-13 06:11:00,
2013-06-13 01:16:00,59.0,57.9,29.75,NE,45,0.0,2.0,96,0.00,,---,0.00,0.00,VWS V14.01,2013-06-13 06:16:00,
2013-06-13 01:21:00,59.0,57.9,29.75,NE,44,0.0,2.0,96,0.00,,---,0.00,0.00,VWS V14.01,2013-06-13 06:21:00,
2013-06-13 01:26:00,58.9,57.8,29.75,NE,44,0.0,2.0,96,0.00,,---,0.00,0.00,VWS V14.01,2013-06-13 06:26:00,
2013-06-13 01:31:00,58.7,57.6,29.76,NE,44,0.0,2.0,96,0.00,,---,0.00,0.00,VWS V14.01,2013-06-13 06:31:00,
2013-06-13 01:36:00,58.6,57.5,29.76,NE,44,0.0,2.0,96,0.00,,---,0.00,0.00,VWS V14.01,2013-06-13 06:36:00,
2013-06-13 01:41:00,58.6,57.5,29.77,NE,44,0.0,2.0,96,0.00,,---,0.00,0.00,VWS V14.01,2013-06-13 06:41:00,
2013-06-13 01:46:00,58.4,57.3,29.77,NE,44,0.0,2.0,96,0.00,,---,0.00,0.00,VWS V14.01,2013-06-13 06:46:00,
2013-06-13 01:51:00,58.3,57.2,29.77,NE,44,0.0,2.0,96,0.00,,---,0.00,0.00,VWS V14.01,2013-06-13 06:51:00,
2013-06-13 01:56:00,58.3,57.2,29.78,NE,44,0.0,2.0,96,0.00,,---,0.00,0.00,VWS V14.01,2013-06-13 06:56:00,
2013-06-13 02:00:00,58.3,57.2,29.78,NE,44,1.0,2.0,96,0.00,,---,0.00,0.00,VWS V14.01,2013-06-13 07:00:00,
2013-06-13 02:01:00,58.2,57.1,29.78,NE,44,0.0,1.0,96,0.00,,---,0.00,0.00,VWS V14.01,2013-06-13 07:01:00,
2013-06-13 02:06:00,58.3,57.2,29.78,NE,44,0.0,1.0,96,0.00,,---,0.00,0.00,VWS V14.01,2013-06-13 07:06:00,
2013-06-13 02:11:00,58.3,57.2,29.78,NE,44,0.0,1.0,96,0.00,,---,0.00,0.00,VWS V14.01,2013-06-13 07:11:00,
2013-06-13 02:16:00,58.3,57.2,29.78,NE,44,0.0,1.0,96,0.00,,---,0.00,0.00,VWS V14.01,2013-06-13 07:16:00,
2013-06-13 02:21:00,58.3,57.2,29.78,NE,44,0.0,1.0,96,0.00,,---,0.00,0.00,VWS V14.01,2013-06-13 07:21:00,
2013-06-13 02:26:00,58.3,57.2,29.78,NE,44,0.0,1.0,96,0.00,,---,0.00,0.00,VWS V14.01,2013-06-13 07:26:00,
2013-06-13 02:31:00,58.3,57.2,29.78,NE,44,0.0,1.0,96,0.00,,---,0.00,0.00,VWS V14.01,2013-06-13 07:31:00,
2013-06-13 02:36:00,58.3,57.5,29.79,NE,44,0.0,1.0,97,0.00,,---,0.00,0.00,VWS V14.01,2013-06-13 07:36:00,
2013-06-13 02:41:00,58.4,57.6,29.79,NE,44,0.0,1.0,97,0.00,,---,0.00,0.00,VWS V14.01,2013-06-13 07:41:00,
2013-06-13 02:46:00,58.4,57.6,29.79,NE,44,0.0,1.0,97,0.00,,---,0.00,0.00,VWS V14.01,2013-06-13 07:46:00,
2013-06-13 02:51:00,58.5,57.7,29.79,NE,44,0.0,1.0,97,0.00,,---,0.00,0.00,VWS V14.01,2013-06-13 07:51:00,
2013-06-13 02:56:00,58.7,57.8,29.80,NE,44,0.0,1.0,97,0.00,,---,0.00,0.00,VWS V14.01,2013-06-13 07:56:00,
2013-06-13 03:00:00,58.7,57.8,29.80,NE,44,0.0,1.0,97,0.00,,---,0.00,0.00,VWS V14.01,2013-06-13 08:00:00,
2013-06-13 03:01:00,58.7,57.8,29.80,NE,44,0.0,1.0,97,0.00,,---,0.00,0.00,VWS V14.01,2013-06-13 08:01:00,
2013-06-13 03:06:00,58.8,58.0,29.80,NE,44,0.0,2.0,97,0.00,,---,0.00,0.00,VWS V14.01,2013-06-13 08:06:00,
2013-06-13 03:11:00,58.7,57.8,29.80,NE,44,0.0,2.0,97,0.00,,---,0.00,0.00,VWS V14.01,2013-06-13 08:11:00,
2013-06-13 03:16:00,58.7,57.8,29.80,NE,45,0.0,2.0,97,0.00,,---,0.00,0.00,VWS V14.01,2013-06-13 08:16:00,
2013-06-13 03:21:00,58.7,57.8,29.81,NE,44,0.0,2.0,97,0.00,,---,0.00,0.00,VWS V14.01,2013-06-13 08:21:00,
2013-06-13 03:26:00,58.6,57.8,29.81,SE,132,0.0,2.0,97,0.00,,---,0.00,0.00,VWS V14.01,2013-06-13 08:26:00,
2013-06-13 03:31:00,58.5,57.7,29.81,SSE,155,0.0,2.0,97,0.00,,---,0.00,0.00,VWS V14.01,2013-06-13 08:31:00,
2013-06-13 03:36:00,58.5,57.7,29.80,SSE,155,0.0,2.0,97,0.00,,---,0.00,0.00,VWS V14.01,2013-06-13 08:36:00,
2013-06-13 03:41:00,58.4,57.6,29.80,SSE,155,0.0,2.0,97,0.00,,---,0.00,0.00,VWS V14.01,2013-06-13 08:41:00,
2013-06-13 03:46:00,58.4,57.6,29.81,SSE,155,0.0,2.0,97,0.00,,---,0.00,0.00,VWS V14.01,2013-06-13 08:46:00,
2013-06-13 03:51:00,58.2,57.4,29.81,SSE,155,0.0,2.0,97,0.00,,---,0.00,0.00,VWS V14.01,2013-06-13 08:51:00,
2013-06-13 03:56:00,58.0,57.2,29.81,SSE,155,0.0,2.0,97,0.00,,---,0.00,0.00,VWS V14.01,2013-06-13 08:56:00,
2013-06-13 04:00:00,57.9,57.1,29.81,SSE,155,0.0,2.0,97,0.00,,---,0.00,0.00,VWS V14.01,2013-06-13 09:00:00,
2013-06-13 04:01:00,57.9,57.1,29.81,SSE,155,0.0,0.0,97,0.00,,---,0.00,0.00,VWS V14.01,2013-06-13 09:01:00,
2013-06-13 04:06:00,57.7,56.9,29.81,SSE,155,0.0,1.0,97,0.00,,---,0.00,0.00,VWS V14.01,2013-06-13 09:06:00,
2013-06-13 04:11:00,57.5,56.7,29.81,SSE,155,0.0,1.0,97,0.00,,---,0.00,0.00,VWS V14.01,2013-06-13 09:11:00,
2013-06-13 04:16:00,57.5,56.7,29.81,SSE,155,0.0,1.0,97,0.00,,---,0.00,0.00,VWS V14.01,2013-06-13 09:16:00,
2013-06-13 04:21:00,57.5,56.7,29.81,SSE,155,0.0,1.0,97,0.00,,---,0.00,0.00,VWS V14.01,2013-06-13 09:21:00,
2013-06-13 04:26:00,57.5,56.7,29.81,SSE,155,0.0,1.0,97,0.00,,---,0.00,0.00,VWS V14.01,2013-06-13 09:26:00,
2013-06-13 04:31:00,57.5,56.7,29.82,SSE,155,0.0,1.0,97,0.00,,---,0.00,0.00,VWS V14.01,2013-06-13 09:31:00,
2013-06-13 04:36:00,57.5,56.7,29.82,SSE,155,0.0,1.0,97,0.00,,---,0.00,0.00,VWS V14.01,2013-06-13 09:36:00,
2013-06-13 04:41:00,57.5,56.7,29.82,SSE,155,0.0,1.0,97,0.00,,---,0.00,0.00,VWS V14.01,2013-06-13 09:41:00,
2013-06-13 04:46:00,57.5,56.7,29.81,SSE,155,0.0,1.0,97,0.00,,---,0.00,0.00,VWS V14.01,2013-06-13 09:46:00,
2013-06-13 04:51:00,57.5,56.7,29.82,SSE,155,0.0,1.0,97,0.00,,---,0.00,0.00,VWS V14.01,2013-06-13 09:51:00,
2013-06-13 04:56:00,57.5,56.7,29.82,SSE,155,0.0,1.0,97,0.00,,---,0.00,0.00,VWS V14.01,2013-06-13 09:56:00,
2013-06-13 05:00:00,57.5,56.7,29.82,SSE,155,0.0,1.0,97,0.00,,---,0.00,0.00,VWS V14.01,2013-06-13 10:00:00,
2013-06-13 05:01:00,57.5,56.7,29.83,SSE,155,0.0,0.0,97,0.00,,---,0.00,0.00,VWS V14.01,2013-06-13 10:01:00,
2013-06-13 05:06:00,57.5,56.7,29.83,SSE,155,0.0,3.0,97,0.00,,---,0.00,0.00,VWS V14.01,2013-06-13 10:06:00,
2013-06-13 05:11:00,57.5,56.7,29.83,SSW,199,0.0,3.0,97,0.00,,---,0.00,0.00,VWS V14.01,2013-06-13 10:11:00,
2013-06-13 05:16:00,57.5,56.7,29.84,SSW,199,0.0,3.0,97,0.00,,---,0.00,0.00,VWS V14.01,2013-06-13 10:16:00,
2013-06-13 05:21:00,57.6,56.8,29.84,SSW,199,0.0,3.0,97,0.00,,---,0.00,0.00,VWS V14.01,2013-06-13 10:21:00,
2013-06-13 05:26:00,57.7,56.9,29.85,SSW,199,0.0,3.0,97,0.00,,---,0.00,0.00,VWS V14.01,2013-06-13 10:26:00,
2013-06-13 05:31:00,57.8,57.2,29.85,SSW,199,0.0,3.0,98,0.00,,---,0.00,5.00,VWS V14.01,2013-06-13 10:31:00,
2013-06-13 05:36:00,57.8,57.2,29.85,SSW,199,0.0,3.0,98,0.00,,---,0.00,7.00,VWS V14.01,2013-06-13 10:36:00,
2013-06-13 05:41:00,57.8,57.2,29.86,SSW,199,0.0,3.0,98,0.00,,---,0.00,11.00,VWS V14.01,2013-06-13 10:41:00,
2013-06-13 05:46:00,57.9,57.1,29.86,SSW,199,0.0,3.0,97,0.00,,---,0.00,14.00,VWS V14.01,2013-06-13 10:46:00,
2013-06-13 05:51:00,57.9,57.3,29.86,SSW,199,0.0,3.0,98,0.00,,---,0.00,16.00,VWS V14.01,2013-06-13 10:51:00,
2013-06-13 05:56:00,57.9,57.3,29.87,SSW,199,0.0,3.0,98,0.00,,---,0.00,14.00,VWS V14.01,2013-06-13 10:56:00,
2013-06-13 06:00:00,57.9,57.3,29.87,SSW,199,0.0,3.0,98,0.01,,---,0.01,14.00,VWS V14.01,2013-06-13 11:00:00,
2013-06-13 06:01:00,57.9,57.3,29.87,SSW,199,0.0,1.0,98,0.01,,---,0.01,16.00,VWS V14.01,2013-06-13 11:01:00,
2013-06-13 06:06:00,58.0,57.4,29.86,SSW,199,0.0,1.0,98,0.01,,---,0.01,16.00,VWS V14.01,2013-06-13 11:06:00,
2013-06-13 06:11:00,58.0,57.4,29.87,SSW,199,0.0,1.0,98,0.01,,---,0.01,18.00,VWS V14.01,2013-06-13 11:11:00,
2013-06-13 06:16:00,58.1,57.5,29.87,SSW,199,0.0,1.0,98,0.01,,---,0.01,23.00,VWS V14.01,2013-06-13 11:16:00,
2013-06-13 06:21:00,58.2,57.6,29.87,SSW,199,0.0,1.0,98,0.01,,---,0.01,25.00,VWS V14.01,2013-06-13 11:21:00,
2013-06-13 06:26:00,58.4,57.8,29.87,SSW,199,0.0,1.0,98,0.01,,---,0.01,26.00,VWS V14.01,2013-06-13 11:26:00,
2013-06-13 06:31:00,58.6,58.0,29.88,SSW,199,0.0,1.0,98,0.01,,---,0.01,28.00,VWS V14.01,2013-06-13 11:31:00,
2013-06-13 06:36:00,58.7,58.1,29.87,SSW,199,0.0,1.0,98,0.01,,---,0.01,30.00,VWS V14.01,2013-06-13 11:36:00,
2013-06-13 06:41:00,59.0,58.4,29.87,SSW,199,0.0,1.0,98,0.01,,---,0.01,37.00,VWS V14.01,2013-06-13 11:41:00,
2013-06-13 06:46:00,59.2,58.6,29.88,SSW,199,0.0,1.0,98,0.01,,---,0.01,54.00,VWS V14.01,2013-06-13 11:46:00,
2013-06-13 06:51:00,59.4,58.8,29.88,SSW,199,0.0,1.0,98,0.01,,---,0.01,77.00,VWS V14.01,2013-06-13 11:51:00,
2013-06-13 06:56:00,59.7,59.1,29.88,SSW,199,0.0,1.0,98,0.01,,---,0.01,114.00,VWS V14.01,2013-06-13 11:56:00,
2013-06-13 07:00:00,60.0,59.4,29.88,WSW,248,2.0,2.0,98,0.01,,---,0.01,142.00,VWS V14.01,2013-06-13 12:00:00,
2013-06-13 07:01:00,60.1,59.5,29.88,WSW,248,0.0,2.0,98,0.00,,---,0.01,156.00,VWS V14.01,2013-06-13 12:01:00,
2013-06-13 07:06:00,60.3,59.7,29.88,WSW,248,0.0,2.0,98,0.00,,---,0.01,195.00,VWS V14.01,2013-06-13 12:06:00,
2013-06-13 07:11:00,60.6,60.0,29.88,WSW,248,0.0,2.0,98,0.00,,---,0.01,218.00,VWS V14.01,2013-06-13 12:11:00,
2013-06-13 07:16:00,60.8,60.2,29.88,WSW,248,0.0,2.0,98,0.00,,---,0.01,241.00,VWS V14.01,2013-06-13 12:16:00,
2013-06-13 07:21:00,61.1,60.5,29.89,WSW,248,1.0,2.0,98,0.00,,---,0.01,260.00,VWS V14.01,2013-06-13 12:21:00,
2013-06-13 07:26:00,61.3,60.7,29.89,WSW,248,0.0,2.0,98,0.00,,---,0.01,272.00,VWS V14.01,2013-06-13 12:26:00,
2013-06-13 07:31:00,61.6,61.0,29.90,WSW,248,0.0,2.0,98,0.00,,---,0.01,283.00,VWS V14.01,2013-06-13 12:31:00,
2013-06-13 07:36:00,62.0,61.4,29.90,WSW,248,0.0,2.0,98,0.00,,---,0.01,301.00,VWS V14.01,2013-06-13 12:36:00,
2013-06-13 07:41:00,62.4,61.8,29.90,NNW,327,2.0,4.0,98,0.00,,---,0.01,322.00,VWS V14.01,2013-06-13 12:41:00,
2013-06-13 07:46:00,62.8,62.2,29.90,NNW,336,1.0,4.0,98,0.00,,---,0.01,341.00,VWS V14.01,2013-06-13 12:46:00,
2013-06-13 07:51:00,63.2,62.6,29.90,NNW,336,1.0,4.0,98,0.00,,---,0.01,359.00,VWS V14.01,2013-06-13 12:51:00,
2013-06-13 07:56:00,63.5,62.9,29.90,North,5,2.0,4.0,98,0.00,,---,0.01,378.00,VWS V14.01,2013-06-13 12:56:00,
2013-06-13 08:00:00,63.7,63.1,29.90,North,5,2.0,4.0,98,0.00,,---,0.01,388.00,VWS V14.01,2013-06-13 13:00:00,
2013-06-13 08:01:00,63.9,63.3,29.90,North,5,0.0,2.0,98,0.00,,---,0.01,392.00,VWS V14.01,2013-06-13 13:01:00,
2013-06-13 08:06:00,64.3,63.4,29.90,North,5,2.0,3.0,97,0.00,,---,0.01,411.00,VWS V14.01,2013-06-13 13:06:00,
2013-06-13 08:11:00,64.5,63.3,29.91,NNE,14,1.0,5.0,96,0.00,,---,0.01,431.00,VWS V14.01,2013-06-13 13:11:00,
2013-06-13 08:16:00,64.9,63.4,29.91,North,5,2.0,5.0,95,0.00,,---,0.01,385.00,VWS V14.01,2013-06-13 13:16:00,
2013-06-13 08:21:00,65.3,63.2,29.91,North,5,1.0,5.0,93,0.00,,---,0.01,461.00,VWS V14.01,2013-06-13 13:21:00,
2013-06-13 08:26:00,65.7,62.7,29.91,NNE,22,1.0,5.0,90,0.00,,---,0.01,471.00,VWS V14.01,2013-06-13 13:26:00,
2013-06-13 08:31:00,66.3,62.3,29.91,NE,51,2.0,5.0,87,0.00,,---,0.01,483.00,VWS V14.01,2013-06-13 13:31:00,
2013-06-13 08:36:00,66.7,61.7,29.91,North,351,0.0,5.0,84,0.00,,---,0.01,504.00,VWS V14.01,2013-06-13 13:36:00,
2013-06-13 08:41:00,67.4,61.7,29.91,North,355,2.0,5.0,82,0.00,,---,0.01,519.00,VWS V14.01,2013-06-13 13:41:00,
2013-06-13 08:46:00,67.8,61.4,29.91,North,5,0.0,5.0,80,0.00,,---,0.01,538.00,VWS V14.01,2013-06-13 13:46:00,
2013-06-13 08:51:00,68.4,61.6,29.92,North,5,0.0,5.0,79,0.00,,---,0.01,547.00,VWS V14.01,2013-06-13 13:51:00,
2013-06-13 08:56:00,68.9,61.4,29.92,ENE,65,0.0,5.0,77,0.00,,---,0.01,526.00,VWS V14.01,2013-06-13 13:56:00,
2013-06-13 09:00:00,69.4,61.9,29.92,ENE,65,0.0,5.0,77,0.00,,---,0.01,629.00,VWS V14.01,2013-06-13 14:00:00,
2013-06-13 09:01:00,69.6,61.0,29.92,NNW,327,2.0,4.0,74,0.00,,---,0.01,610.00,VWS V14.01,2013-06-13 14:01:00,
2013-06-13 09:06:00,69.8,60.8,29.92,ENE,66,0.0,4.0,73,0.00,,---,0.01,594.00,VWS V14.01,2013-06-13 14:06:00,
2013-06-13 09:11:00,70.6,62.3,29.92,ENE,66,0.0,4.0,75,0.00,,---,0.01,610.00,VWS V14.01,2013-06-13 14:11:00,
2013-06-13 09:16:00,70.4,60.6,29.92,NE,56,0.0,4.0,71,0.00,,---,0.01,628.00,VWS V14.01,2013-06-13 14:16:00,
2013-06-13 09:21:00,70.4,61.0,29.92,NW,323,0.0,4.0,72,0.00,,---,0.01,643.00,VWS V14.01,2013-06-13 14:21:00,
2013-06-13 09:26:00,69.5,61.6,29.92,NW,323,1.0,4.0,76,0.00,,---,0.01,656.00,VWS V14.01,2013-06-13 14:26:00,
2013-06-13 09:31:00,71.7,62.6,29.92,NNE,19,2.0,4.0,73,0.00,,---,0.01,670.00,VWS V14.01,2013-06-13 14:31:00,
2013-06-13 09:36:00,72.1,61.4,29.92,NNE,13,0.0,4.0,69,0.00,,---,0.01,682.00,VWS V14.01,2013-06-13 14:36:00,
2013-06-13 09:41:00,72.5,61.8,29.92,ENE,63,0.0,4.0,69,0.00,,---,0.01,701.00,VWS V14.01,2013-06-13 14:41:00,
2013-06-13 09:46:00,72.4,61.2,29.92,NNW,329,5.0,5.0,68,0.00,,---,0.01,719.00,VWS V14.01,2013-06-13 14:46:00,
2013-06-13 09:51:00,72.2,61.5,29.92,North,5,2.0,5.0,69,0.00,,---,0.01,724.00,VWS V14.01,2013-06-13 14:51:00,
2013-06-13 09:56:00,72.4,60.4,29.92,North,355,3.0,5.0,66,0.00,,---,0.01,744.00,VWS V14.01,2013-06-13 14:56:00,
2013-06-13 10:00:00,72.1,61.0,29.92,NNW,337,0.0,5.0,68,0.00,,---,0.01,752.00,VWS V14.01,2013-06-13 15:00:00,
2013-06-13 10:01:00,71.7,59.8,29.92,NW,306,2.0,3.0,66,0.00,,---,0.01,756.00,VWS V14.01,2013-06-13 15:01:00,
2013-06-13 10:06:00,72.8,62.0,29.92,WNW,283,2.0,4.0,69,0.00,,---,0.01,770.00,VWS V14.01,2013-06-13 15:06:00,
2013-06-13 10:11:00,72.0,60.5,29.92,NNE,23,4.0,6.0,67,0.00,,---,0.01,779.00,VWS V14.01,2013-06-13 15:11:00,
2013-06-13 10:16:00,72.3,61.2,29.93,NNW,338,5.0,6.0,68,0.00,,---,0.01,796.00,VWS V14.01,2013-06-13 15:16:00,
2013-06-13 10:21:00,71.9,61.2,29.92,NW,313,5.0,7.0,69,0.00,,---,0.01,810.00,VWS V14.01,2013-06-13 15:21:00,
2013-06-13 10:26:00,73.0,61.4,29.93,NNE,20,3.0,7.0,67,0.00,,---,0.01,817.00,VWS V14.01,2013-06-13 15:26:00,
2013-06-13 10:31:00,72.9,61.3,29.93,NW,325,4.0,7.0,67,0.00,,---,0.01,826.00,VWS V14.01,2013-06-13 15:31:00,
2013-06-13 10:36:00,72.6,61.0,29.93,NW,321,2.0,7.0,67,0.00,,---,0.01,833.00,VWS V14.01,2013-06-13 15:36:00,
2013-06-13 10:41:00,73.1,60.7,29.93,North,11,1.0,7.0,65,0.00,,---,0.01,844.00,VWS V14.01,2013-06-13 15:41:00,
2013-06-13 10:46:00,74.3,60.5,29.93,North,11,2.0,7.0,62,0.00,,---,0.01,847.00,VWS V14.01,2013-06-13 15:46:00,
2013-06-13 10:51:00,75.4,61.5,29.94,NE,46,0.0,7.0,62,0.00,,---,0.01,858.00,VWS V14.01,2013-06-13 15:51:00,
2013-06-13 10:56:00,74.2,59.0,29.94,NNW,339,8.0,8.0,59,0.00,,---,0.01,895.00,VWS V14.01,2013-06-13 15:56:00,
2013-06-13 11:00:00,75.0,60.7,29.94,NNE,20,0.0,3.0,61,0.00,,---,0.01,882.00,VWS V14.01,2013-06-13 16:00:00,
2013-06-13 11:05:00,73.9,59.6,29.94,NNW,333,2.0,5.0,61,0.00,,---,0.01,891.00,VWS V14.01,2013-06-13 16:05:00,
2013-06-13 11:10:00,74.0,60.2,29.94,North,350,0.0,6.0,62,0.00,,---,0.01,888.00,VWS V14.01,2013-06-13 16:10:00,
2013-06-13 11:15:00,75.3,61.4,29.94,North,5,2.0,6.0,62,0.00,,---,0.01,907.00,VWS V14.01,2013-06-13 16:15:00,
2013-06-13 11:20:00,75.3,60.9,29.94,NNW,344,3.0,6.0,61,0.00,,---,0.01,946.00,VWS V14.01,2013-06-13 16:20:00,
2013-06-13 11:25:00,74.4,60.5,29.94,NNW,342,2.0,6.0,62,0.00,,---,0.01,951.00,VWS V14.01,2013-06-13 16:25:00,
2013-06-13 11:30:00,74.6,58.9,29.95,North,355,5.0,8.0,58,0.00,,---,0.01,942.00,VWS V14.01,2013-06-13 16:30:00,
2013-06-13 11:35:00,74.6,58.9,29.95,NNE,16,2.0,8.0,58,0.00,,---,0.01,954.00,VWS V14.01,2013-06-13 16:35:00,
2013-06-13 11:40:00,76.4,59.1,29.94,North,355,2.0,8.0,55,0.00,,---,0.01,954.00,VWS V14.01,2013-06-13 16:40:00,
2013-06-13 11:45:00,76.3,59.0,29.95,NNW,342,3.0,8.0,55,0.00,,---,0.01,953.00,VWS V14.01,2013-06-13 16:45:00,
2013-06-13 11:50:00,76.5,59.7,29.94,WNW,295,2.0,8.0,56,0.00,,---,0.01,953.00,VWS V14.01,2013-06-13 16:50:00,
2013-06-13 11:55:00,76.0,59.7,29.95,WNW,288,1.0,8.0,57,0.00,,---,0.01,972.00,VWS V14.01,2013-06-13 16:55:00,
2013-06-13 12:00:00,75.7,59.4,29.95,NW,309,4.0,5.0,57,0.00,,---,0.01,990.00,VWS V14.01,2013-06-13 17:00:00,
2013-06-13 12:05:00,77.1,61.2,29.94,SW,214,2.0,5.0,58,0.00,,---,0.01,986.00,VWS V14.01,2013-06-13 17:05:00,
2013-06-13 12:10:00,77.1,59.7,29.95,WSW,252,3.0,5.0,55,0.00,,---,0.01,1086.00,VWS V14.01,2013-06-13 17:10:00,
2013-06-13 12:15:00,76.1,59.8,29.95,NNE,22,3.0,7.0,57,0.00,,---,0.01,1025.00,VWS V14.01,2013-06-13 17:15:00,
2013-06-13 12:20:00,76.6,61.7,29.95,NW,318,4.0,7.0,60,0.00,,---,0.01,1044.00,VWS V14.01,2013-06-13 17:20:00,
2013-06-13 12:25:00,77.8,58.2,29.95,North,10,2.0,8.0,51,0.00,,---,0.01,1056.00,VWS V14.01,2013-06-13 17:25:00,
2013-06-13 12:30:00,79.5,59.8,29.95,NNE,33,3.0,8.0,51,0.00,,---,0.01,1097.00,VWS V14.01,2013-06-13 17:30:00,
2013-06-13 12:35:00,77.4,59.5,29.95,West,261,4.0,9.0,54,0.00,,---,0.01,253.00,VWS V14.01,2013-06-13 17:35:00,
2013-06-13 12:40:00,76.9,58.5,29.95,North,9,3.0,11.0,53,0.00,,---,0.01,1074.00,VWS V14.01,2013-06-13 17:40:00,
2013-06-13 12:45:00,77.7,58.2,29.95,North,355,2.0,11.0,51,0.00,,---,0.01,1067.00,VWS V14.01,2013-06-13 17:45:00,
2013-06-13 12:50:00,77.7,59.2,29.95,West,265,2.0,11.0,53,0.00,,---,0.01,1072.00,VWS V14.01,2013-06-13 17:50:00,
2013-06-13 12:55:00,76.7,59.8,29.96,NNE,33,4.0,11.0,56,0.00,,---,0.01,1027.00,VWS V14.01,2013-06-13 17:55:00,
2013-06-13 13:00:00,77.0,58.0,29.95,NNW,333,4.0,10.0,52,0.00,,---,0.01,1018.00,VWS V14.01,2013-06-13 18:00:00,
2013-06-13 13:05:00,77.4,57.9,29.95,NNW,338,5.0,11.0,51,0.00,,---,0.01,1021.00,VWS V14.01,2013-06-13 18:05:00,
2013-06-13 13:10:00,78.1,59.6,29.95,NNE,19,2.0,11.0,53,0.00,,---,0.01,243.00,VWS V14.01,2013-06-13 18:10:00,
2013-06-13 13:15:00,77.2,58.8,29.95,NNW,329,3.0,11.0,53,0.00,,---,0.01,1028.00,VWS V14.01,2013-06-13 18:15:00,
2013-06-13 13:20:00,77.1,57.6,29.95,North,360,2.0,11.0,51,0.00,,---,0.01,1000.00,VWS V14.01,2013-06-13 18:20:00,
2013-06-13 13:25:00,79.3,59.6,29.95,ENE,64,4.0,11.0,51,0.00,,---,0.01,1020.00,VWS V14.01,2013-06-13 18:25:00,
2013-06-13 13:30:00,79.7,58.9,29.95,NE,53,2.0,11.0,49,0.00,,---,0.01,1071.00,VWS V14.01,2013-06-13 18:30:00,
2013-06-13 13:35:00,77.6,57.5,29.95,North,355,1.0,11.0,50,0.00,,---,0.01,1048.00,VWS V14.01,2013-06-13 18:35:00,
2013-06-13 13:40:00,78.0,57.9,29.95,NNE,15,3.0,11.0,50,0.00,,---,0.01,1053.00,VWS V14.01,2013-06-13 18:40:00,
2013-06-13 13:45:00,79.8,59.0,29.95,ENE,58,3.0,11.0,49,0.00,,---,0.01,1167.00,VWS V14.01,2013-06-13 18:45:00,
2013-06-13 13:50:00,78.0,58.4,29.95,NNE,25,3.0,11.0,51,0.00,,---,0.01,329.00,VWS V14.01,2013-06-13 18:50:00,
2013-06-13 13:55:00,78.1,58.5,29.96,NNE,27,2.0,11.0,51,0.00,,---,0.01,1088.00,VWS V14.01,2013-06-13 18:55:00,
2013-06-13 14:00:00,78.6,58.4,29.95,NNE,26,2.0,7.0,50,0.00,,---,0.01,185.00,VWS V14.01,2013-06-13 19:00:00,
2013-06-13 14:05:00,77.5,58.0,29.95,NNW,341,6.0,9.0,51,0.00,,---,0.01,1042.00,VWS V14.01,2013-06-13 19:05:00,
2013-06-13 14:10:00,76.6,57.1,29.95,NE,36,2.0,9.0,51,0.00,,---,0.01,997.00,VWS V14.01,2013-06-13 19:10:00,
2013-06-13 14:15:00,77.8,59.3,29.95,North,360,6.0,9.0,53,0.00,,---,0.01,1079.00,VWS V14.01,2013-06-13 19:15:00,
2013-06-13 14:20:00,77.2,58.2,29.95,NE,35,3.0,9.0,52,0.00,,---,0.01,200.00,VWS V14.01,2013-06-13 19:20:00,
2013-06-13 14:25:00,78.2,58.6,29.95,NE,51,3.0,9.0,51,0.00,,---,0.01,977.00,VWS V14.01,2013-06-13 19:25:00,
2013-06-13 14:30:00,78.2,58.6,29.95,NE,36,6.0,9.0,51,0.00,,---,0.01,976.00,VWS V14.01,2013-06-13 19:30:00,
2013-06-13 14:35:00,78.0,56.7,29.96,West,269,7.0,11.0,48,0.00,,---,0.01,974.00,VWS V14.01,2013-06-13 19:35:00,
2013-06-13 14:40:00,78.3,59.2,29.96,NNE,32,0.0,11.0,52,0.00,,---,0.01,940.00,VWS V14.01,2013-06-13 19:40:00,
2013-06-13 14:45:00,79.5,58.7,29.95,West,261,4.0,11.0,49,0.00,,---,0.01,940.00,VWS V14.01,2013-06-13 19:45:00,
2013-06-13 14:50:00,78.9,57.6,29.95,North,5,3.0,11.0,48,0.00,,---,0.01,995.00,VWS V14.01,2013-06-13 19:50:00,
2013-06-13 14:55:00,78.6,57.3,29.95,NNW,333,2.0,11.0,48,0.00,,---,0.01,1046.00,VWS V14.01,2013-06-13 19:55:00,
2013-06-13 15:00:00,79.0,58.8,29.95,NE,34,2.0,5.0,50,0.00,,---,0.01,295.00,VWS V14.01,2013-06-13 20:00:00,
2013-06-13 15:05:00,79.0,59.3,29.95,NE,43,3.0,7.0,51,0.00,,---,0.01,1107.00,VWS V14.01,2013-06-13 20:05:00,
2013-06-13 15:10:00,79.4,58.6,29.95,North,5,3.0,7.0,49,0.00,,---,0.01,953.00,VWS V14.01,2013-06-13 20:10:00,
2013-06-13 15:15:00,79.8,57.8,29.95,West,275,5.0,8.0,47,0.00,,---,0.01,916.00,VWS V14.01,2013-06-13 20:15:00,
2013-06-13 15:20:00,80.0,58.0,29.95,West,277,5.0,8.0,47,0.00,,---,0.01,998.00,VWS V14.01,2013-06-13 20:20:00,
2013-06-13 15:25:00,78.3,57.0,29.95,NNE,29,4.0,9.0,48,0.00,,---,0.01,206.00,VWS V14.01,2013-06-13 20:25:00,
2013-06-13 15:30:00,78.5,57.2,29.95,NNW,334,5.0,9.0,48,0.00,,---,0.01,865.00,VWS V14.01,2013-06-13 20:30:00,
2013-06-13 15:35:00,78.6,56.7,29.95,NW,315,4.0,9.0,47,0.00,,---,0.01,856.00,VWS V14.01,2013-06-13 20:35:00,
2013-06-13 15:40:00,79.1,58.3,29.95,NNW,327,7.0,9.0,49,0.00,,---,0.01,902.00,VWS V14.01,2013-06-13 20:40:00,
2013-06-13 15:45:00,78.0,56.7,29.95,NNE,19,2.0,9.0,48,0.00,,---,0.01,142.00,VWS V14.01,2013-06-13 20:45:00,
2013-06-13 15:50:00,78.4,56.5,29.95,NW,321,2.0,9.0,47,0.00,,---,0.01,826.00,VWS V14.01,2013-06-13 20:50:00,
2013-06-13 15:55:00,78.9,58.1,29.95,SSE,148,1.0,9.0,49,0.00,,---,0.01,867.00,VWS V14.01,2013-06-13 20:55:00,
2013-06-13 16:00:00,79.4,58.0,29.95,NNE,23,3.0,6.0,48,0.00,,---,0.01,918.00,VWS V14.01,2013-06-13 21:00:00,
2013-06-13 16:05:00,80.5,59.0,29.95,NNE,20,2.0,6.0,48,0.00,,---,0.01,860.00,VWS V14.01,2013-06-13 21:05:00,
2013-06-13 16:10:00,80.8,59.3,29.95,NNE,32,1.0,6.0,48,0.00,,---,0.01,912.00,VWS V14.01,2013-06-13 21:10:00,
2013-06-13 16:15:00,79.0,58.2,29.95,NE,36,1.0,6.0,49,0.00,,---,0.01,236.00,VWS V14.01,2013-06-13 21:15:00,
2013-06-13 16:20:00,78.8,57.5,29.95,NNE,28,3.0,7.0,48,0.00,,---,0.01,770.00,VWS V14.01,2013-06-13 21:20:00,
2013-06-13 16:25:00,78.7,57.4,29.95,NW,306,2.0,7.0,48,0.00,,---,0.01,793.00,VWS V14.01,2013-06-13 21:25:00,
2013-06-13 16:30:00,79.5,59.2,29.95,NE,39,1.0,7.0,50,0.00,,---,0.01,796.00,VWS V14.01,2013-06-13 21:30:00,
2013-06-13 16:35:00,81.1,59.0,29.95,NNE,24,2.0,7.0,47,0.00,,---,0.01,719.00,VWS V14.01,2013-06-13 21:35:00,
2013-06-13 16:40:00,80.1,59.2,29.95,NE,37,2.0,7.0,49,0.00,,---,0.01,714.00,VWS V14.01,2013-06-13 21:40:00,
2013-06-13 16:45:00,79.7,58.9,29.95,NNE,23,3.0,7.0,49,0.00,,---,0.01,721.00,VWS V14.01,2013-06-13 21:45:00,
2013-06-13 16:50:00,79.6,58.8,29.95,NE,44,4.0,7.0,49,0.00,,---,0.01,105.00,VWS V14.01,2013-06-13 21:50:00,
2013-06-13 16:55:00,78.5,58.9,29.95,NE,39,1.0,7.0,51,0.00,,---,0.01,650.00,VWS V14.01,2013-06-13 21:55:00,
2013-06-13 17:00:00,78.6,59.5,29.95,NNE,16,2.0,5.0,52,0.00,,---,0.01,617.00,VWS V14.01,2013-06-13 22:00:00,
2013-06-13 17:05:00,79.1,59.4,29.95,NE,49,4.0,5.0,51,0.00,,---,0.01,605.00,VWS V14.01,2013-06-13 22:05:00,
2013-06-13 17:10:00,79.1,57.8,29.95,NE,38,4.0,6.0,48,0.00,,---,0.01,584.00,VWS V14.01,2013-06-13 22:10:00,
2013-06-13 17:15:00,78.9,58.7,29.95,NE,44,4.0,6.0,50,0.00,,---,0.01,571.00,VWS V14.01,2013-06-13 22:15:00,
2013-06-13 17:20:00,78.6,56.7,29.95,NE,47,4.0,6.0,47,0.00,,---,0.01,555.00,VWS V14.01,2013-06-13 22:20:00,
2013-06-13 17:25:00,79.0,55.9,29.95,NE,36,3.0,6.0,45,0.00,,---,0.01,540.00,VWS V14.01,2013-06-13 22:25:00,
2013-06-13 17:30:00,78.8,56.3,29.95,NE,40,5.0,6.0,46,0.00,,---,0.01,519.00,VWS V14.01,2013-06-13 22:30:00,
2013-06-13 17:35:00,79.0,57.7,29.95,NE,52,2.0,6.0,48,0.00,,---,0.01,506.00,VWS V14.01,2013-06-13 22:35:00,
2013-06-13 17:40:00,78.4,56.5,29.95,NE,42,2.0,6.0,47,0.00,,---,0.01,489.00,VWS V14.01,2013-06-13 22:40:00,
2013-06-13 17:45:00,77.9,56.1,29.95,North,9,2.0,6.0,47,0.00,,---,0.01,475.00,VWS V14.01,2013-06-13 22:45:00,
2013-06-13 17:50:00,77.7,56.5,29.95,NE,47,2.0,6.0,48,0.00,,---,0.01,457.00,VWS V14.01,2013-06-13 22:50:00,
2013-06-13 17:55:00,77.8,56.0,29.95,NNW,343,3.0,6.0,47,0.00,,---,0.01,441.00,VWS V14.01,2013-06-13 22:55:00,
2013-06-13 18:00:00,77.5,55.7,29.95,NNE,28,4.0,5.0,47,0.00,,---,0.01,424.00,VWS V14.01,2013-06-13 23:00:00,
2013-06-13 18:05:00,76.7,56.7,29.95,NNW,342,3.0,7.0,50,0.00,,---,0.01,408.00,VWS V14.01,2013-06-13 23:05:00,
2013-06-13 18:10:00,76.7,56.1,29.95,NNE,12,2.0,7.0,49,0.00,,---,0.01,392.00,VWS V14.01,2013-06-13 23:10:00,
2013-06-13 18:15:00,77.6,56.4,29.96,North,5,5.0,7.0,48,0.00,,---,0.01,374.00,VWS V14.01,2013-06-13 23:15:00,
2013-06-13 18:20:00,77.0,57.0,29.96,North,360,1.0,7.0,50,0.00,,---,0.01,355.00,VWS V14.01,2013-06-13 23:20:00,
2013-06-13 18:25:00,77.1,56.5,29.96,NNW,336,3.0,7.0,49,0.00,,---,0.01,339.00,VWS V14.01,2013-06-13 23:25:00,
2013-06-13 18:30:00,77.4,57.3,29.96,WNW,302,3.0,7.0,50,0.00,,---,0.01,322.00,VWS V14.01,2013-06-13 23:30:00,
2013-06-13 18:35:00,77.3,56.7,29.96,NNE,24,2.0,7.0,49,0.00,,---,0.01,308.00,VWS V14.01,2013-06-13 23:35:00,
2013-06-13 18:40:00,76.8,56.8,29.96,NNE,24,2.0,7.0,50,0.00,,---,0.01,294.00,VWS V14.01,2013-06-13 23:40:00,
2013-06-13 18:45:00,76.4,55.8,29.96,NNE,14,2.0,7.0,49,0.00,,---,0.01,278.00,VWS V14.01,2013-06-13 23:45:00,
2013-06-13 18:50:00,76.3,56.3,29.96,NE,42,2.0,7.0,50,0.00,,---,0.01,258.00,VWS V14.01,2013-06-13 23:50:00,
2013-06-13 18:55:00,75.9,57.0,29.96,NNE,26,2.0,7.0,52,0.00,,---,0.01,241.00,VWS V14.01,2013-06-13 23:55:00,
2013-06-13 19:00:00,76.0,56.6,29.97,NNE,26,2.0,2.0,51,0.00,,---,0.01,223.00,VWS V14.01,2013-06-14 00:00:00,
2013-06-13 19:05:00,75.7,56.8,29.97,North,350,0.0,3.0,52,0.00,,---,0.01,204.00,VWS V14.01,2013-06-14 00:05:00,
2013-06-13 19:10:00,75.2,56.9,29.97,North,350,1.0,3.0,53,0.00,,---,0.01,186.00,VWS V14.01,2013-06-14 00:10:00,
2013-06-13 19:15:00,75.1,56.3,29.97,NNW,332,2.0,3.0,52,0.00,,---,0.01,171.00,VWS V14.01,2013-06-14 00:15:00,
2013-06-13 19:20:00,75.2,56.9,29.97,NE,54,0.0,3.0,53,0.00,,---,0.01,153.00,VWS V14.01,2013-06-14 00:20:00,
2013-06-13 19:25:00,75.2,57.4,29.97,ENE,58,0.0,3.0,54,0.00,,---,0.01,135.00,VWS V14.01,2013-06-14 00:25:00,
2013-06-13 19:30:00,75.0,57.8,29.97,ENE,58,0.0,3.0,55,0.00,,---,0.01,116.00,VWS V14.01,2013-06-14 00:30:00,
2013-06-13 19:35:00,74.6,57.4,29.97,ENE,58,1.0,3.0,55,0.00,,---,0.01,100.00,VWS V14.01,2013-06-14 00:35:00,
2013-06-13 19:40:00,74.6,57.9,29.97,ENE,58,0.0,3.0,56,0.00,,---,0.01,56.00,VWS V14.01,2013-06-14 00:40:00,
2013-06-13 19:45:00,74.2,57.0,29.97,ENE,58,0.0,3.0,55,0.00,,---,0.01,32.00,VWS V14.01,2013-06-14 00:45:00,
2013-06-13 19:50:00,73.6,57.0,29.97,ENE,58,0.0,3.0,56,0.00,,---,0.01,32.00,VWS V14.01,2013-06-14 00:50:00,
2013-06-13 19:55:00,73.3,57.2,29.98,ENE,58,0.0,3.0,57,0.00,,---,0.01,30.00,VWS V14.01,2013-06-14 00:55:00,
2013-06-13 20:00:00,73.2,57.5,29.98,ENE,58,0.0,0.0,58,0.00,,---,0.01,26.00,VWS V14.01,2013-06-14 01:00:00,
2013-06-13 20:05:00,72.7,57.6,29.98,ENE,58,0.0,0.0,59,0.00,,---,0.01,25.00,VWS V14.01,2013-06-14 01:05:00,
2013-06-13 20:10:00,72.2,57.6,29.98,ENE,58,0.0,0.0,60,0.00,,---,0.01,21.00,VWS V14.01,2013-06-14 01:10:00,
2013-06-13 20:15:00,71.6,57.5,29.98,ENE,58,0.0,0.0,61,0.00,,---,0.01,18.00,VWS V14.01,2013-06-14 01:15:00,
2013-06-13 20:20:00,71.2,57.1,29.98,ENE,58,0.0,0.0,61,0.00,,---,0.01,16.00,VWS V14.01,2013-06-14 01:20:00,
2013-06-13 20:25:00,71.0,57.3,29.98,ENE,58,0.0,0.0,62,0.00,,---,0.01,11.00,VWS V14.01,2013-06-14 01:25:00,
2013-06-13 20:30:00,70.7,57.1,29.98,ENE,58,0.0,0.0,62,0.00,,---,0.01,9.00,VWS V14.01,2013-06-14 01:30:00,
2013-06-13 20:35:00,70.1,56.9,29.98,ENE,58,0.0,0.0,63,0.00,,---,0.01,7.00,VWS V14.01,2013-06-14 01:35:00,
2013-06-13 20:40:00,69.4,57.1,29.98,ENE,58,0.0,0.0,65,0.00,,---,0.01,5.00,VWS V14.01,2013-06-14 01:40:00,
2013-06-13 20:45:00,69.0,57.6,29.98,ENE,58,0.0,0.0,67,0.00,,---,0.01,0.00,VWS V14.01,2013-06-14 01:45:00,
2013-06-13 20:50:00,68.4,57.4,29.98,ENE,58,0.0,0.0,68,0.00,,---,0.01,0.00,VWS V14.01,2013-06-14 01:50:00,
2013-06-13 20:55:00,67.7,57.6,29.98,ENE,58,0.0,0.0,70,0.00,,---,0.01,0.00,VWS V14.01,2013-06-14 01:55:00,
2013-06-13 21:00:00,67.1,58.5,29.98,ENE,58,0.0,0.0,74,0.00,,---,0.01,0.00,VWS V14.01,2013-06-14 02:00:00,
2013-06-13 21:05:00,66.7,59.3,29.98,ENE,58,0.0,1.0,77,0.00,,---,0.01,0.00,VWS V14.01,2013-06-14 02:05:00,
2013-06-13 21:10:00,66.2,59.2,29.99,ENE,58,0.0,1.0,78,0.00,,---,0.01,0.00,VWS V14.01,2013-06-14 02:10:00,
2013-06-13 21:15:00,65.9,59.2,29.99,ENE,58,0.0,1.0,79,0.00,,---,0.01,0.00,VWS V14.01,2013-06-14 02:15:00,
2013-06-13 21:20:00,65.7,59.4,29.99,ENE,58,0.0,1.0,80,0.00,,---,0.01,0.00,VWS V14.01,2013-06-14 02:20:00,
2013-06-13 21:25:00,65.9,59.9,29.99,ENE,58,0.0,1.0,81,0.00,,---,0.01,0.00,VWS V14.01,2013-06-14 02:25:00,
2013-06-13 21:30:00,65.7,59.7,29.99,ENE,58,0.0,1.0,81,0.00,,---,0.01,0.00,VWS V14.01,2013-06-14 02:30:00,
2013-06-13 21:35:00,65.5,59.9,29.99,ENE,58,0.0,1.0,82,0.00,,---,0.01,0.00,VWS V14.01,2013-06-14 02:35:00,
2013-06-13 21:40:00,65.2,59.9,29.99,ENE,58,0.0,1.0,83,0.00,,---,0.01,0.00,VWS V14.01,2013-06-14 02:40:00,
2013-06-13 21:45:00,64.9,59.6,29.99,ENE,58,0.0,1.0,83,0.00,,---,0.01,0.00,VWS V14.01,2013-06-14 02:45:00,
2013-06-13 21:50:00,64.5,59.6,29.99,ENE,58,0.0,1.0,84,0.00,,---,0.01,0.00,VWS V14.01,2013-06-14 02:50:00,
2013-06-13 21:55:00,64.4,59.5,29.99,ENE,58,0.0,1.0,84,0.00,,---,0.01,0.00,VWS V14.01,2013-06-14 02:55:00,
2013-06-13 22:00:00,64.3,59.0,29.99,ENE,58,0.0,0.0,83,0.00,,---,0.01,0.00,VWS V14.01,2013-06-14 03:00:00,
2013-06-13 22:05:00,64.1,58.8,29.99,ENE,58,0.0,0.0,83,0.00,,---,0.01,0.00,VWS V14.01,2013-06-14 03:05:00,
2013-06-13 22:10:00,64.1,59.2,29.99,ENE,58,0.0,0.0,84,0.00,,---,0.01,0.00,VWS V14.01,2013-06-14 03:10:00,
2013-06-13 22:15:00,64.0,59.1,29.99,ENE,58,0.0,0.0,84,0.00,,---,0.01,0.00,VWS V14.01,2013-06-14 03:15:00,
2013-06-13 22:20:00,63.8,59.2,29.99,ENE,58,0.0,0.0,85,0.00,,---,0.01,0.00,VWS V14.01,2013-06-14 03:20:00,
2013-06-13 22:25:00,63.6,59.3,29.99,ENE,58,0.0,0.0,86,0.00,,---,0.01,0.00,VWS V14.01,2013-06-14 03:25:00,
2013-06-13 22:30:00,63.5,59.2,29.99,ENE,58,0.0,0.0,86,0.00,,---,0.01,0.00,VWS V14.01,2013-06-14 03:30:00,
2013-06-13 22:35:00,63.6,59.3,30.00,ENE,58,0.0,1.0,86,0.00,,---,0.01,0.00,VWS V14.01,2013-06-14 03:35:00,
2013-06-13 22:40:00,63.6,59.3,30.00,ENE,58,0.0,1.0,86,0.00,,---,0.01,0.00,VWS V14.01,2013-06-14 03:40:00,
2013-06-13 22:45:00,63.6,59.3,30.00,ENE,58,0.0,1.0,86,0.00,,---,0.01,0.00,VWS V14.01,2013-06-14 03:45:00,
2013-06-13 22:50:00,63.6,59.3,30.00,ENE,58,0.0,1.0,86,0.00,,---,0.01,0.00,VWS V14.01,2013-06-14 03:50:00,
2013-06-13 22:55:00,63.5,59.6,30.00,ENE,58,0.0,1.0,87,0.00,,---,0.01,0.00,VWS V14.01,2013-06-14 03:55:00,
2013-06-13 23:00:00,63.4,59.5,30.00,ENE,58,0.0,0.0,87,0.00,,---,0.01,0.00,VWS V14.01,2013-06-14 04:00:00,
2013-06-13 23:01:00,63.4,59.5,30.00,ENE,58,0.0,0.0,87,0.00,,---,0.01,0.00,VWS V14.01,2013-06-14 04:01:00,
2013-06-13 23:06:00,63.2,59.3,30.00,ENE,58,0.0,0.0,87,0.00,,---,0.01,0.00,VWS V14.01,2013-06-14 04:06:00,
2013-06-13 23:11:00,63.1,59.2,30.00,ENE,58,0.0,0.0,87,0.00,,---,0.01,0.00,VWS V14.01,2013-06-14 04:11:00,
2013-06-13 23:16:00,63.0,59.1,29.99,ENE,58,0.0,0.0,87,0.00,,---,0.01,0.00,VWS V14.01,2013-06-14 04:16:00,
2013-06-13 23:21:00,62.8,58.9,29.99,ENE,58,0.0,0.0,87,0.00,,---,0.01,0.00,VWS V14.01,2013-06-14 04:21:00,
2013-06-13 23:26:00,62.7,58.8,30.00,ENE,58,0.0,0.0,87,0.00,,---,0.01,0.00,VWS V14.01,2013-06-14 04:26:00,
2013-06-13 23:31:00,62.6,58.7,30.00,ENE,58,0.0,0.0,87,0.00,,---,0.01,0.00,VWS V14.01,2013-06-14 04:31:00,
2013-06-13 23:36:00,62.4,58.5,30.00,ENE,58,0.0,0.0,87,0.00,,---,0.01,0.00,VWS V14.01,2013-06-14 04:36:00,
2013-06-13 23:41:00,62.2,58.3,30.00,ENE,58,0.0,0.0,87,0.00,,---,0.01,0.00,VWS V14.01,2013-06-14 04:41:00,
2013-06-13 23:46:00,62.0,58.1,30.01,ENE,58,0.0,1.0,87,0.00,,---,0.01,0.00,VWS V14.01,2013-06-14 04:46:00,
2013-06-13 23:51:00,61.8,58.2,30.01,ENE,58,0.0,1.0,88,0.00,,---,0.01,0.00,VWS V14.01,2013-06-14 04:51:00,
2013-06-13 23:56:00,61.6,58.3,30.01,ENE,58,0.0,1.0,89,0.00,,---,0.01,0.00,VWS V14.01,2013-06-14 04:56:00,